Time;durP1;ratioP1;P1;durP2;ratioP2;P2;SDS_P1;SDS_P2;PMS_P1;PMS_P2;Temp;Humidity;BMP_temperature;BMP_pressure;BME280_temperature;BME280_humidity;BME280_pressure;Samples;Min_cycle;Max_cycle;Signal;HPM_P1;HPM_P2
2022/07/01 00:09:17;;;;;;;6.35;4.97;;;24.40;64.20;;;;;;21028095;28;20042;-75
2022/07/01 00:19:18;;;;;;;5.72;5.05;;;24.40;65.00;;;;;;21055102;28;20040;-74
2022/07/01 00:29:19;;;;;;;8.40;5.38;;;24.40;64.30;;;;;;21018243;28;20040;-74
2022/07/01 00:39:19;;;;;;;8.27;6.00;;;24.40;64.30;;;;;;21040318;28;20036;-75
2022/07/01 00:49:20;;;;;;;8.32;5.95;;;24.30;64.40;;;;;;21303730;22;20452;-75
2022/07/01 00:59:20;;;;;;;6.85;5.07;;;24.30;64.70;;;;;;20969334;28;20478;-75
2022/07/01 01:09:21;;;;;;;8.38;5.70;;;24.30;64.70;;;;;;20970353;28;20421;-74
2022/07/01 01:19:21;;;;;;;5.70;5.05;;;24.30;64.70;;;;;;20930020;28;20047;-75
2022/07/01 01:29:22;;;;;;;11.40;5.60;;;24.30;64.70;;;;;;20970006;28;20127;-75
2022/07/01 01:39:24;;;;;;;6.47;4.47;;;24.30;64.50;;;;;;20969296;28;20032;-75
2022/07/01 01:49:24;;;;;;;8.90;4.63;;;24.30;64.30;;;;;;20984303;28;20127;-75
2022/07/01 01:59:25;;;;;;;4.25;3.53;;;24.30;64.30;;;;;;20984473;28;20028;-75
2022/07/01 02:09:30;;;;;;;5.72;3.70;;;24.30;64.20;;;;;;20984708;28;20432;-74
2022/07/01 02:19:31;;;;;;;3.50;2.70;;;24.30;64.20;;;;;;20984196;28;20071;-75
2022/07/01 02:29:32;;;;;;;3.03;2.70;;;24.30;64.30;;;;;;20983343;28;20471;-75
2022/07/01 02:39:33;;;;;;;3.00;2.55;;;24.30;64.30;;;;;;20966528;28;20486;-75
2022/07/01 02:49:33;;;;;;;5.45;2.22;;;24.30;64.40;;;;;;20982712;28;20047;-75
2022/07/01 02:59:34;;;;;;;5.40;2.92;;;24.30;64.30;;;;;;20981970;28;20032;-76
2022/07/01 03:09:35;;;;;;;3.53;2.33;;;24.20;64.30;;;;;;20958079;28;20113;-75
2022/07/01 03:19:35;;;;;;;2.80;2.10;;;24.20;64.50;;;;;;20962838;28;20051;-75
2022/07/01 03:29:36;;;;;;;3.97;2.20;;;24.10;64.90;;;;;;20995649;28;20115;-75
2022/07/01 03:39:37;;;;;;;2.63;1.30;;;24.00;65.70;;;;;;20977809;28;20029;-75
2022/07/01 03:49:37;;;;;;;1.95;1.30;;;24.00;66.50;;;;;;20978518;28;20301;-75
2022/07/01 03:59:39;;;;;;;2.40;1.08;;;24.10;65.60;;;;;;20975703;28;20032;-76
2022/07/01 04:09:39;;;;;;;1.35;0.88;;;24.10;65.30;;;;;;20938357;28;20037;-76
2022/07/01 04:19:40;;;;;;;1.27;0.90;;;24.10;65.00;;;;;;20963044;28;20398;-75
2022/07/01 04:29:41;;;;;;;1.80;0.98;;;24.00;64.90;;;;;;20974368;28;20538;-75
2022/07/01 04:39:41;;;;;;;1.65;0.90;;;23.90;64.80;;;;;;20973226;28;20032;-74
2022/07/01 04:49:42;;;;;;;1.43;0.70;;;23.90;64.70;;;;;;20956073;28;20040;-74
2022/07/01 04:59:43;;;;;;;2.75;0.85;;;23.90;64.50;;;;;;20966894;28;20331;-76
2022/07/01 05:09:43;;;;;;;1.30;0.65;;;23.90;64.20;;;;;;20966891;28;20422;-74
2022/07/01 05:30:03;;;;;;;0.47;0.43;;;23.80;64.10;;;;;;20961850;28;20429;-71
2022/07/01 05:40:04;;;;;;;0.65;0.40;;;23.80;64.10;;;;;;20986096;28;20089;-73
2022/07/01 05:50:05;;;;;;;0.70;0.32;;;23.70;64.00;;;;;;20951949;28;20098;-73
2022/07/01 06:00:06;;;;;;;0.50;0.30;;;23.70;63.80;;;;;;20940808;28;20029;-73
2022/07/01 06:10:12;;;;;;;1.17;0.32;;;23.70;63.70;;;;;;20967847;28;20056;-73
2022/07/01 06:20:12;;;;;;;0.63;0.30;;;23.60;63.40;;;;;;20944081;28;20450;-74
2022/07/01 06:30:13;;;;;;;1.17;0.50;;;23.70;63.20;;;;;;20930690;28;20441;-74
2022/07/01 06:40:14;;;;;;;1.67;0.47;;;23.60;62.90;;;;;;20949799;28;20115;-74
2022/07/01 06:50:14;;;;;;;1.60;0.50;;;23.60;62.70;;;;;;20967551;28;20291;-83
2022/07/01 07:00:15;;;;;;;1.03;0.40;;;23.70;62.60;;;;;;20949656;28;20029;-76
2022/07/01 07:10:16;;;;;;;2.03;0.50;;;23.60;62.50;;;;;;20960801;28;20040;-77
2022/07/01 07:20:17;;;;;;;1.35;0.40;;;23.60;62.20;;;;;;20963230;28;20040;-75
2022/07/01 07:30:17;;;;;;;0.40;0.25;;;23.50;62.10;;;;;;20975499;28;20032;-75
2022/07/01 07:40:18;;;;;;;0.95;0.38;;;23.50;62.00;;;;;;20963128;28;20037;-75
2022/07/01 07:50:19;;;;;;;0.22;0.20;;;23.50;62.00;;;;;;20962814;28;20044;-76
2022/07/01 08:00:19;;;;;;;0.30;0.30;;;23.50;61.90;;;;;;20978410;28;20037;-76
2022/07/01 08:10:21;;;;;;;0.85;0.50;;;23.50;61.80;;;;;;20957924;28;20036;-75
2022/07/01 08:20:22;;;;;;;0.68;0.50;;;23.50;62.00;;;;;;20957708;28;20401;-72
2022/07/01 08:30:23;;;;;;;0.50;0.40;;;23.40;61.60;;;;;;20984072;28;20120;-72
2022/07/01 08:40:25;;;;;;;1.98;0.50;;;23.40;61.50;;;;;;20973292;28;20123;-71
2022/07/01 08:50:29;;;;;;;0.75;0.60;;;23.40;61.60;;;;;;20970815;28;20036;-72
2022/07/01 09:00:31;;;;;;;1.73;0.90;;;23.40;61.60;;;;;;20953098;28;20108;-71
2022/07/01 09:10:34;;;;;;;1.00;0.70;;;23.40;61.60;;;;;;20959296;28;20403;-74
2022/07/01 09:20:36;;;;;;;1.65;0.68;;;23.30;61.60;;;;;;20969909;28;20036;-75
2022/07/01 09:30:37;;;;;;;1.20;0.60;;;23.30;61.70;;;;;;20970988;28;20043;-77
2022/07/01 09:40:57;;;;;;;0.70;0.70;;;23.20;62.00;;;;;;20941019;28;20028;-76
2022/07/01 09:50:58;;;;;;;1.58;0.70;;;23.20;62.00;;;;;;20942767;28;20325;-78
2022/07/01 10:00:58;;;;;;;2.75;0.88;;;23.20;62.10;;;;;;20972510;28;20033;-74
2022/07/01 10:11:34;;;;;;;1.83;1.15;;;23.20;62.90;;;;;;20972259;28;20040;-75
2022/07/01 10:21:35;;;;;;;1.17;0.73;;;23.20;62.30;;;;;;20961102;28;20029;-77
2022/07/01 10:31:37;;;;;;;1.60;0.80;;;23.10;62.40;;;;;;20986955;28;20082;-77
2022/07/01 10:41:53;;;;;;;4.35;1.13;;;23.10;62.50;;;;;;20968175;28;20094;-72
2022/07/01 10:51:55;;;;;;;2.88;1.40;;;23.10;62.60;;;;;;20984689;28;20060;-75
2022/07/01 11:01:55;;;;;;;2.25;0.80;;;23.10;62.60;;;;;;20960704;28;20467;-76
2022/07/01 11:11:56;;;;;;;3.95;1.10;;;23.10;62.70;;;;;;20983525;28;20043;-72
2022/07/01 11:21:57;;;;;;;1.40;1.00;;;23.10;62.90;;;;;;20958465;28;20033;-79
2022/07/01 11:31:59;;;;;;;1.33;0.70;;;23.00;62.90;;;;;;20947748;28;20039;-77
2022/07/01 11:42:04;;;;;;;4.85;1.35;;;22.90;63.30;;;;;;20964699;28;20032;-81
2022/07/01 11:52:09;;;;;;;1.52;0.68;;;22.90;64.00;;;;;;20976210;28;20036;-78
2022/07/01 12:02:18;;;;;;;0.80;0.50;;;22.90;63.40;;;;;;20985028;28;20083;-77
2022/07/01 12:12:20;;;;;;;1.00;0.70;;;22.90;63.40;;;;;;20998860;28;20044;-78
2022/07/01 12:22:25;;;;;;;0.95;0.75;;;22.90;63.30;;;;;;20980243;28;20033;-75
2022/07/01 12:32:27;;;;;;;;;;;22.80;63.20;;;;;;20965543;28;20494;-74
2022/07/01 12:42:34;;;;;;;0.68;0.57;;;22.80;63.20;;;;;;20987508;28;19920;-74
2022/07/01 12:52:35;;;;;;;4.18;0.88;;;22.80;63.20;;;;;;20974161;28;20449;-75
2022/07/01 13:02:35;;;;;;;1.27;0.85;;;22.90;63.20;;;;;;20975049;28;20040;-75
2022/07/01 13:12:36;;;;;;;2.15;1.48;;;22.90;63.10;;;;;;20939501;28;20025;-77
2022/07/01 13:22:36;;;;;;;2.83;1.50;;;22.80;62.70;;;;;;20932167;28;20028;-74
2022/07/01 13:32:39;;;;;;;2.97;1.40;;;22.80;62.50;;;;;;20967184;28;20036;-75
2022/07/01 13:42:39;;;;;;;2.78;1.75;;;22.80;62.20;;;;;;20969611;28;20562;-76
2022/07/01 13:52:40;;;;;;;2.87;1.93;;;22.80;62.00;;;;;;20927689;28;20127;-76
2022/07/01 14:02:40;;;;;;;1.40;1.00;;;22.70;62.00;;;;;;20946135;28;20321;-74
2022/07/01 14:12:41;;;;;;;4.30;1.40;;;22.60;61.80;;;;;;20983530;28;20461;-75
2022/07/01 14:22:42;;;;;;;4.88;1.35;;;22.60;61.80;;;;;;20947703;28;20035;-74
2022/07/01 14:32:42;;;;;;;2.80;1.38;;;22.50;61.70;;;;;;20945685;28;20040;-75
2022/07/01 14:42:43;;;;;;;1.10;1.00;;;22.60;61.70;;;;;;20947745;28;20045;-74
2022/07/01 14:52:43;;;;;;;1.80;1.10;;;22.60;61.50;;;;;;20963038;28;20122;-74
2022/07/01 15:02:44;;;;;;;3.60;1.38;;;22.60;61.40;;;;;;20949279;28;20028;-73
2022/07/01 15:12:44;;;;;;;2.72;1.33;;;22.60;61.30;;;;;;20992582;28;20181;-74
2022/07/01 15:22:45;;;;;;;3.45;1.15;;;22.60;61.30;;;;;;20976976;28;20067;-73
2022/07/01 15:32:45;;;;;;;2.20;1.53;;;22.50;61.30;;;;;;20992460;28;20551;-73
2022/07/01 15:42:46;;;;;;;2.10;1.20;;;22.50;61.30;;;;;;20977327;28;20369;-75
2022/07/01 15:52:47;;;;;;;2.37;1.33;;;22.50;61.40;;;;;;20959301;28;20043;-72
2022/07/01 16:02:48;;;;;;;1.90;1.30;;;22.50;61.50;;;;;;20956330;28;20445;-73
2022/07/01 16:12:48;;;;;;;2.55;1.63;;;22.50;61.70;;;;;;20941616;28;20033;-72
2022/07/01 16:22:49;;;;;;;5.28;1.50;;;22.50;61.70;;;;;;20941496;28;20029;-76
2022/07/01 16:32:50;;;;;;;4.47;1.50;;;22.50;61.70;;;;;;20974347;28;20045;-76
2022/07/01 16:42:50;;;;;;;5.53;1.85;;;22.50;61.70;;;;;;20966400;28;20293;-74
2022/07/01 16:52:52;;;;;;;4.28;2.00;;;22.50;61.70;;;;;;20951867;28;20032;-74
2022/07/01 17:02:53;;;;;;;3.08;1.55;;;22.50;61.60;;;;;;20990299;28;20089;-74
2022/07/01 17:12:53;;;;;;;3.95;1.65;;;22.50;61.50;;;;;;20985856;28;20052;-71
2022/07/01 17:23:03;;;;;;;3.92;1.73;;;22.50;61.30;;;;;;20955711;28;20032;-71
2022/07/01 17:33:05;;;;;;;2.72;1.38;;;22.50;61.10;;;;;;20959904;28;20047;-72
2022/07/01 17:43:06;;;;;;;3.35;1.42;;;22.60;60.80;;;;;;20936383;28;20074;-70
2022/07/01 17:53:07;;;;;;;3.33;1.80;;;22.70;60.60;;;;;;20965211;28;20474;-69
2022/07/01 18:03:08;;;;;;;3.42;1.65;;;22.70;60.30;;;;;;20930339;28;20039;-72
2022/07/01 18:13:08;;;;;;;3.08;1.23;;;22.80;60.00;;;;;;20947299;28;20086;-71
2022/07/01 18:23:15;;;;;;;2.28;1.48;;;22.70;59.80;;;;;;20960696;28;20036;-72
2022/07/01 18:33:22;;;;;;;3.40;1.52;;;22.70;59.60;;;;;;20965448;28;20067;-72
2022/07/01 18:43:23;;;;;;;2.50;1.50;;;22.60;59.50;;;;;;20980594;28;20094;-73
2022/07/01 18:53:23;;;;;;;3.78;1.60;;;22.50;59.30;;;;;;20935973;28;20079;-73
2022/07/01 19:03:24;;;;;;;2.58;1.63;;;22.50;59.50;;;;;;20947375;28;20036;-73
2022/07/01 19:13:24;;;;;;;2.67;1.75;;;22.40;59.60;;;;;;20978126;28;20032;-74
2022/07/01 19:23:25;;;;;;;2.78;1.30;;;22.30;59.90;;;;;;20977270;28;20028;-74
2022/07/01 19:33:26;;;;;;;2.35;1.63;;;22.30;60.30;;;;;;20973988;28;20119;-73
2022/07/01 19:43:26;;;;;;;2.85;1.50;;;22.20;60.60;;;;;;20927577;28;20032;-75
2022/07/01 19:53:27;;;;;;;3.20;1.65;;;22.20;60.90;;;;;;20952075;28;20033;-73
2022/07/01 20:03:28;;;;;;;3.47;1.50;;;22.10;61.00;;;;;;20941703;28;20039;-74
2022/07/01 20:13:29;;;;;;;2.28;1.20;;;22.10;61.10;;;;;;20957992;28;20386;-73
2022/07/01 20:23:29;;;;;;;2.22;2.00;;;22.00;61.10;;;;;;20933887;28;20037;-73
2022/07/01 20:33:30;;;;;;;2.45;1.42;;;22.00;61.10;;;;;;20954968;28;20440;-74
2022/07/01 20:43:31;;;;;;;3.17;1.67;;;21.90;61.10;;;;;;20973269;28;20525;-73
2022/07/01 20:53:31;;;;;;;2.90;1.58;;;21.80;61.00;;;;;;20956096;28;20062;-73
2022/07/01 21:03:33;;;;;;;3.30;1.35;;;21.80;60.90;;;;;;20987070;28;20443;-74
2022/07/01 21:13:33;;;;;;;3.85;1.30;;;21.70;60.80;;;;;;20970324;28;20040;-75
2022/07/01 21:23:34;;;;;;;1.95;1.27;;;21.60;60.60;;;;;;20971909;28;20044;-74
2022/07/01 21:33:34;;;;;;;2.03;1.25;;;21.60;60.50;;;;;;20968990;28;20055;-74
2022/07/01 21:43:35;;;;;;;2.95;1.55;;;21.50;60.30;;;;;;20952238;28;20040;-74
2022/07/01 21:53:40;;;;;;;1.35;1.00;;;21.50;60.20;;;;;;20951566;28;20043;-74
2022/07/01 22:03:41;;;;;;;1.42;0.90;;;21.40;60.70;;;;;;20967124;28;20071;-73
2022/07/01 22:13:46;;;;;;;1.77;1.35;;;21.40;59.90;;;;;;20983569;28;20411;-73
2022/07/01 22:23:48;;;;;;;1.70;1.42;;;21.30;59.70;;;;;;20995377;28;20560;-74
2022/07/01 22:33:50;;;;;;;3.40;1.55;;;21.20;59.50;;;;;;21010293;28;20035;-75
2022/07/01 22:43:51;;;;;;;1.65;0.90;;;21.20;59.30;;;;;;20977035;28;20036;-74
2022/07/01 22:53:54;;;;;;;2.30;1.40;;;21.10;59.10;;;;;;21010566;28;20050;-73
2022/07/01 23:03:54;;;;;;;2.40;1.23;;;21.10;59.00;;;;;;20993308;28;20540;-74
2022/07/01 23:24:25;;;;;;;1.88;1.30;;;21.00;58.80;;;;;;20975174;28;20391;-74
2022/07/01 23:34:26;;;;;;;2.88;2.10;;;20.90;58.70;;;;;;20963384;28;20482;-75
2022/07/01 23:44:26;;;;;;;3.83;2.33;;;20.90;58.90;;;;;;20978564;28;20127;-73
2022/07/01 23:54:27;;;;;;;3.03;2.00;;;20.90;59.10;;;;;;20961221;28;20526;-76
